sensor_id;sensor_type;location;lat;lon;timestamp;temperature;humidity
11387;DHT22;5748;53.102;8.456;2023-02-01T00:01:33;9.60;64.40
11387;DHT22;5748;53.102;8.456;2023-02-01T00:04:01;9.70;64.30
11387;DHT22;5748;53.102;8.456;2023-02-01T00:06:29;9.80;64.30
11387;DHT22;5748;53.102;8.456;2023-02-01T00:08:56;11.70;65.20
11387;DHT22;5748;53.102;8.456;2023-02-01T00:11:24;9.70;64.50
11387;DHT22;5748;53.102;8.456;2023-02-01T00:13:52;9.90;64.60
11387;DHT22;5748;53.102;8.456;2023-02-01T00:16:20;9.70;64.50
11387;DHT22;5748;53.102;8.456;2023-02-01T00:18:58;9.70;64.30
11387;DHT22;5748;53.102;8.456;2023-02-01T00:21:27;9.70;64.30
11387;DHT22;5748;53.102;8.456;2023-02-01T00:23:56;9.70;64.40
11387;DHT22;5748;53.102;8.456;2023-02-01T00:26:27;9.80;64.10
11387;DHT22;5748;53.102;8.456;2023-02-01T00:28:57;9.80;64.30
11387;DHT22;5748;53.102;8.456;2023-02-01T00:31:24;9.80;64.20
11387;DHT22;5748;53.102;8.456;2023-02-01T00:33:51;9.80;64.00
11387;DHT22;5748;53.102;8.456;2023-02-01T00:36:19;9.80;63.90
11387;DHT22;5748;53.102;8.456;2023-02-01T00:38:47;9.80;64.10
11387;DHT22;5748;53.102;8.456;2023-02-01T00:41:16;9.80;63.90
11387;DHT22;5748;53.102;8.456;2023-02-01T00:43:52;9.80;64.10
11387;DHT22;5748;53.102;8.456;2023-02-01T00:46:21;9.80;63.90
11387;DHT22;5748;53.102;8.456;2023-02-01T00:48:48;9.80;63.90
11387;DHT22;5748;53.102;8.456;2023-02-01T00:51:17;9.80;64.00
11387;DHT22;5748;53.102;8.456;2023-02-01T00:53:49;9.80;64.00
11387;DHT22;5748;53.102;8.456;2023-02-01T00:56:17;9.80;64.10
11387;DHT22;5748;53.102;8.456;2023-02-01T00:58:44;9.80;64.00
11387;DHT22;5748;53.102;8.456;2023-02-01T01:01:12;9.70;63.80
11387;DHT22;5748;53.102;8.456;2023-02-01T01:03:43;9.80;64.10
11387;DHT22;5748;53.102;8.456;2023-02-01T01:06:14;9.80;64.10
11387;DHT22;5748;53.102;8.456;2023-02-01T01:08:42;9.80;64.10
11387;DHT22;5748;53.102;8.456;2023-02-01T01:11:13;9.90;64.10
11387;DHT22;5748;53.102;8.456;2023-02-01T01:13:43;9.80;64.00
11387;DHT22;5748;53.102;8.456;2023-02-01T01:16:11;9.80;63.90
11387;DHT22;5748;53.102;8.456;2023-02-01T01:18:38;9.80;64.00
11387;DHT22;5748;53.102;8.456;2023-02-01T01:21:06;9.80;64.40
11387;DHT22;5748;53.102;8.456;2023-02-01T01:23:35;9.80;64.00
11387;DHT22;5748;53.102;8.456;2023-02-01T01:26:05;9.80;64.10
11387;DHT22;5748;53.102;8.456;2023-02-01T01:28:34;9.90;64.20
11387;DHT22;5748;53.102;8.456;2023-02-01T01:31:02;9.90;64.00
11387;DHT22;5748;53.102;8.456;2023-02-01T01:33:29;9.90;64.20
11387;DHT22;5748;53.102;8.456;2023-02-01T01:35:56;9.90;64.00
11387;DHT22;5748;53.102;8.456;2023-02-01T01:38:23;9.90;63.90
11387;DHT22;5748;53.102;8.456;2023-02-01T01:40:50;9.90;63.90
11387;DHT22;5748;53.102;8.456;2023-02-01T01:43:19;9.90;64.00
11387;DHT22;5748;53.102;8.456;2023-02-01T01:45:49;9.90;64.50
11387;DHT22;5748;53.102;8.456;2023-02-01T01:48:21;9.90;64.00
11387;DHT22;5748;53.102;8.456;2023-02-01T01:50:58;9.90;64.10
11387;DHT22;5748;53.102;8.456;2023-02-01T01:53:33;9.90;64.20
11387;DHT22;5748;53.102;8.456;2023-02-01T01:56:04;9.90;64.10
11387;DHT22;5748;53.102;8.456;2023-02-01T01:58:33;9.90;64.00
11387;DHT22;5748;53.102;8.456;2023-02-01T02:01:02;9.90;64.10
11387;DHT22;5748;53.102;8.456;2023-02-01T02:03:34;9.90;64.00
11387;DHT22;5748;53.102;8.456;2023-02-01T02:06:05;9.90;63.90
11387;DHT22;5748;53.102;8.456;2023-02-01T02:08:39;9.90;63.90
11387;DHT22;5748;53.102;8.456;2023-02-01T02:11:06;9.90;63.80
11387;DHT22;5748;53.102;8.456;2023-02-01T02:13:37;9.90;63.90
11387;DHT22;5748;53.102;8.456;2023-02-01T02:16:20;9.90;64.00
11387;DHT22;5748;53.102;8.456;2023-02-01T02:19:13;9.90;64.00
11387;DHT22;5748;53.102;8.456;2023-02-01T02:21:56;9.90;63.90
11387;DHT22;5748;53.102;8.456;2023-02-01T02:24:51;10.30;63.30
11387;DHT22;5748;53.102;8.456;2023-02-01T02:27:40;9.90;64.00
11387;DHT22;5748;53.102;8.456;2023-02-01T02:30:46;9.90;63.90
11387;DHT22;5748;53.102;8.456;2023-02-01T02:33:41;9.90;63.80
11387;DHT22;5748;53.102;8.456;2023-02-01T02:36:18;9.90;63.70
11387;DHT22;5748;53.102;8.456;2023-02-01T02:38:55;9.90;63.80
11387;DHT22;5748;53.102;8.456;2023-02-01T02:41:31;9.90;64.00
11387;DHT22;5748;53.102;8.456;2023-02-01T02:44:35;9.90;64.00
11387;DHT22;5748;53.102;8.456;2023-02-01T02:47:27;9.90;64.00
11387;DHT22;5748;53.102;8.456;2023-02-01T02:50:08;9.90;64.00
11387;DHT22;5748;53.102;8.456;2023-02-01T02:53:00;9.90;64.10
11387;DHT22;5748;53.102;8.456;2023-02-01T02:55:50;9.90;64.00
11387;DHT22;5748;53.102;8.456;2023-02-01T02:58:19;9.90;64.00
11387;DHT22;5748;53.102;8.456;2023-02-01T03:01:06;9.80;64.00
11387;DHT22;5748;53.102;8.456;2023-02-01T03:03:51;9.80;64.10
11387;DHT22;5748;53.102;8.456;2023-02-01T03:06:36;9.90;64.00
11387;DHT22;5748;53.102;8.456;2023-02-01T03:09:12;9.90;64.20
11387;DHT22;5748;53.102;8.456;2023-02-01T03:11:43;9.90;64.30
11387;DHT22;5748;53.102;8.456;2023-02-01T03:14:32;9.90;64.30
11387;DHT22;5748;53.102;8.456;2023-02-01T03:17:07;10.00;63.30
11387;DHT22;5748;53.102;8.456;2023-02-01T03:19:40;9.80;64.40
11387;DHT22;5748;53.102;8.456;2023-02-01T03:22:14;9.80;64.50
11387;DHT22;5748;53.102;8.456;2023-02-01T03:24:45;9.80;64.60
11387;DHT22;5748;53.102;8.456;2023-02-01T03:27:21;9.80;64.70
11387;DHT22;5748;53.102;8.456;2023-02-01T03:29:52;9.70;64.60
11387;DHT22;5748;53.102;8.456;2023-02-01T03:32:22;9.70;64.70
11387;DHT22;5748;53.102;8.456;2023-02-01T03:34:50;9.70;64.90
11387;DHT22;5748;53.102;8.456;2023-02-01T03:37:23;9.70;65.00
11387;DHT22;5748;53.102;8.456;2023-02-01T03:39:56;9.60;64.90
11387;DHT22;5748;53.102;8.456;2023-02-01T03:42:30;9.60;65.00
11387;DHT22;5748;53.102;8.456;2023-02-01T03:45:05;9.60;65.10
11387;DHT22;5748;53.102;8.456;2023-02-01T03:47:36;9.50;65.00
11387;DHT22;5748;53.102;8.456;2023-02-01T03:50:09;9.50;65.00
11387;DHT22;5748;53.102;8.456;2023-02-01T03:52:44;9.50;65.20
11387;DHT22;5748;53.102;8.456;2023-02-01T03:55:13;9.50;65.30
11387;DHT22;5748;53.102;8.456;2023-02-01T03:57:46;9.40;65.30
11387;DHT22;5748;53.102;8.456;2023-02-01T04:00:26;9.40;65.50
11387;DHT22;5748;53.102;8.456;2023-02-01T04:02:54;9.40;65.50
11387;DHT22;5748;53.102;8.456;2023-02-01T04:05:22;9.40;65.50
11387;DHT22;5748;53.102;8.456;2023-02-01T04:07:51;9.40;65.50
11387;DHT22;5748;53.102;8.456;2023-02-01T04:10:19;9.30;65.50
11387;DHT22;5748;53.102;8.456;2023-02-01T04:12:46;9.30;65.50
11387;DHT22;5748;53.102;8.456;2023-02-01T04:15:13;9.30;65.60
11387;DHT22;5748;53.102;8.456;2023-02-01T04:17:41;9.30;65.80
11387;DHT22;5748;53.102;8.456;2023-02-01T04:20:09;9.30;65.70
11387;DHT22;5748;53.102;8.456;2023-02-01T04:22:37;9.30;66.00
11387;DHT22;5748;53.102;8.456;2023-02-01T04:25:07;9.30;66.20
11387;DHT22;5748;53.102;8.456;2023-02-01T04:27:34;9.30;66.20
11387;DHT22;5748;53.102;8.456;2023-02-01T04:30:02;9.30;66.20
11387;DHT22;5748;53.102;8.456;2023-02-01T04:32:36;9.20;66.10
11387;DHT22;5748;53.102;8.456;2023-02-01T04:35:05;9.20;66.30
11387;DHT22;5748;53.102;8.456;2023-02-01T04:37:33;9.20;66.20
11387;DHT22;5748;53.102;8.456;2023-02-01T04:40:00;9.30;66.30
11387;DHT22;5748;53.102;8.456;2023-02-01T04:42:30;9.30;66.20
11387;DHT22;5748;53.102;8.456;2023-02-01T04:44:57;9.30;66.30
11387;DHT22;5748;53.102;8.456;2023-02-01T04:47:32;9.30;66.20
11387;DHT22;5748;53.102;8.456;2023-02-01T04:50:00;9.30;66.40
11387;DHT22;5748;53.102;8.456;2023-02-01T04:52:27;9.30;66.40
11387;DHT22;5748;53.102;8.456;2023-02-01T04:54:54;9.30;66.50
11387;DHT22;5748;53.102;8.456;2023-02-01T04:57:23;9.30;66.40
11387;DHT22;5748;53.102;8.456;2023-02-01T04:59:51;9.30;66.50
11387;DHT22;5748;53.102;8.456;2023-02-01T05:02:19;9.30;66.60
11387;DHT22;5748;53.102;8.456;2023-02-01T05:04:46;9.30;66.70
11387;DHT22;5748;53.102;8.456;2023-02-01T05:07:14;9.30;66.60
11387;DHT22;5748;53.102;8.456;2023-02-01T05:09:41;9.30;66.80
11387;DHT22;5748;53.102;8.456;2023-02-01T05:12:08;9.30;66.80
11387;DHT22;5748;53.102;8.456;2023-02-01T05:15:00;9.30;67.00
11387;DHT22;5748;53.102;8.456;2023-02-01T05:17:27;9.30;66.70
11387;DHT22;5748;53.102;8.456;2023-02-01T05:19:54;9.30;66.70
11387;DHT22;5748;53.102;8.456;2023-02-01T05:22:21;9.30;66.70
11387;DHT22;5748;53.102;8.456;2023-02-01T05:24:48;9.30;67.50
11387;DHT22;5748;53.102;8.456;2023-02-01T05:27:15;9.30;66.70
11387;DHT22;5748;53.102;8.456;2023-02-01T05:29:50;9.30;66.70
11387;DHT22;5748;53.102;8.456;2023-02-01T05:32:18;9.90;67.20
11387;DHT22;5748;53.102;8.456;2023-02-01T05:34:45;9.30;66.50
11387;DHT22;5748;53.102;8.456;2023-02-01T05:37:13;9.30;66.40
11387;DHT22;5748;53.102;8.456;2023-02-01T05:40:02;9.30;66.40
11387;DHT22;5748;53.102;8.456;2023-02-01T05:42:29;9.30;66.60
11387;DHT22;5748;53.102;8.456;2023-02-01T05:44:56;9.30;66.30
11387;DHT22;5748;53.102;8.456;2023-02-01T05:47:25;9.30;66.30
11387;DHT22;5748;53.102;8.456;2023-02-01T05:50:01;9.30;66.30
11387;DHT22;5748;53.102;8.456;2023-02-01T05:52:28;9.30;66.60
11387;DHT22;5748;53.102;8.456;2023-02-01T05:54:55;9.30;66.50
11387;DHT22;5748;53.102;8.456;2023-02-01T05:57:22;9.30;66.40
11387;DHT22;5748;53.102;8.456;2023-02-01T05:59:54;9.30;66.50
11387;DHT22;5748;53.102;8.456;2023-02-01T06:02:21;9.30;66.60
11387;DHT22;5748;53.102;8.456;2023-02-01T06:04:51;9.30;66.70
11387;DHT22;5748;53.102;8.456;2023-02-01T06:07:26;9.30;66.60
11387;DHT22;5748;53.102;8.456;2023-02-01T06:09:53;9.40;66.80
11387;DHT22;5748;53.102;8.456;2023-02-01T06:12:20;9.40;66.80
11387;DHT22;5748;53.102;8.456;2023-02-01T06:14:47;9.40;66.80
11387;DHT22;5748;53.102;8.456;2023-02-01T06:17:14;9.40;66.90
11387;DHT22;5748;53.102;8.456;2023-02-01T06:19:47;9.40;66.90
11387;DHT22;5748;53.102;8.456;2023-02-01T06:22:16;9.40;66.90
11387;DHT22;5748;53.102;8.456;2023-02-01T06:24:43;9.40;66.70
11387;DHT22;5748;53.102;8.456;2023-02-01T06:27:10;9.50;66.70
11387;DHT22;5748;53.102;8.456;2023-02-01T06:29:38;9.40;66.60
11387;DHT22;5748;53.102;8.456;2023-02-01T06:32:06;9.50;66.50
11387;DHT22;5748;53.102;8.456;2023-02-01T06:34:33;9.50;66.40
11387;DHT22;5748;53.102;8.456;2023-02-01T06:37:06;9.50;66.30
11387;DHT22;5748;53.102;8.456;2023-02-01T06:39:35;9.40;66.00
11387;DHT22;5748;53.102;8.456;2023-02-01T06:42:02;9.50;66.10
11387;DHT22;5748;53.102;8.456;2023-02-01T06:44:29;9.40;66.10
11387;DHT22;5748;53.102;8.456;2023-02-01T06:46:56;9.40;65.90
11387;DHT22;5748;53.102;8.456;2023-02-01T06:49:23;9.40;66.20
11387;DHT22;5748;53.102;8.456;2023-02-01T06:51:50;9.40;66.30
11387;DHT22;5748;53.102;8.456;2023-02-01T06:54:17;9.40;66.50
11387;DHT22;5748;53.102;8.456;2023-02-01T06:56:46;9.40;66.60
11387;DHT22;5748;53.102;8.456;2023-02-01T06:59:13;9.40;66.60
11387;DHT22;5748;53.102;8.456;2023-02-01T07:01:41;9.40;66.70
11387;DHT22;5748;53.102;8.456;2023-02-01T07:04:14;9.40;66.80
11387;DHT22;5748;53.102;8.456;2023-02-01T07:06:41;9.50;66.90
11387;DHT22;5748;53.102;8.456;2023-02-01T07:09:08;9.50;66.80
11387;DHT22;5748;53.102;8.456;2023-02-01T07:11:57;9.50;66.80
11387;DHT22;5748;53.102;8.456;2023-02-01T07:14:44;9.60;66.80
11387;DHT22;5748;53.102;8.456;2023-02-01T07:17:11;9.60;66.80
11387;DHT22;5748;53.102;8.456;2023-02-01T07:19:38;9.60;66.50
11387;DHT22;5748;53.102;8.456;2023-02-01T07:22:16;9.70;67.20
11387;DHT22;5748;53.102;8.456;2023-02-01T07:25:02;9.60;66.20
11387;DHT22;5748;53.102;8.456;2023-02-01T07:27:33;9.60;66.30
11387;DHT22;5748;53.102;8.456;2023-02-01T07:30:27;9.60;66.10
11387;DHT22;5748;53.102;8.456;2023-02-01T07:32:55;9.60;66.10
11387;DHT22;5748;53.102;8.456;2023-02-01T07:35:26;9.60;65.90
11387;DHT22;5748;53.102;8.456;2023-02-01T07:37:53;9.60;66.00
11387;DHT22;5748;53.102;8.456;2023-02-01T07:40:33;9.60;65.90
11387;DHT22;5748;53.102;8.456;2023-02-01T07:43:02;9.60;66.20
11387;DHT22;5748;53.102;8.456;2023-02-01T07:45:31;9.60;66.30
11387;DHT22;5748;53.102;8.456;2023-02-01T07:48:16;9.60;66.60
11387;DHT22;5748;53.102;8.456;2023-02-01T07:50:43;9.50;66.60
11387;DHT22;5748;53.102;8.456;2023-02-01T07:53:24;9.60;66.60
11387;DHT22;5748;53.102;8.456;2023-02-01T07:55:57;9.60;66.80
11387;DHT22;5748;53.102;8.456;2023-02-01T07:58:25;9.60;66.70
11387;DHT22;5748;53.102;8.456;2023-02-01T08:00:53;9.60;67.50
11387;DHT22;5748;53.102;8.456;2023-02-01T08:03:38;9.60;66.80
11387;DHT22;5748;53.102;8.456;2023-02-01T08:06:06;9.60;66.80
11387;DHT22;5748;53.102;8.456;2023-02-01T08:08:33;9.60;66.80
11387;DHT22;5748;53.102;8.456;2023-02-01T08:11:01;9.60;66.80
11387;DHT22;5748;53.102;8.456;2023-02-01T08:13:32;9.60;67.00
11387;DHT22;5748;53.102;8.456;2023-02-01T08:16:00;9.70;67.10
11387;DHT22;5748;53.102;8.456;2023-02-01T08:18:28;9.70;67.10
11387;DHT22;5748;53.102;8.456;2023-02-01T08:21:01;9.70;66.90
11387;DHT22;5748;53.102;8.456;2023-02-01T08:23:30;9.80;67.00
11387;DHT22;5748;53.102;8.456;2023-02-01T08:26:05;9.80;66.60
11387;DHT22;5748;53.102;8.456;2023-02-01T08:28:34;9.80;66.90
11387;DHT22;5748;53.102;8.456;2023-02-01T08:31:06;9.90;66.90
11387;DHT22;5748;53.102;8.456;2023-02-01T08:33:34;9.90;67.00
11387;DHT22;5748;53.102;8.456;2023-02-01T08:36:03;10.00;66.00
11387;DHT22;5748;53.102;8.456;2023-02-01T08:38:32;10.00;65.90
11387;DHT22;5748;53.102;8.456;2023-02-01T08:41:04;10.10;65.90
11387;DHT22;5748;53.102;8.456;2023-02-01T08:43:33;10.10;65.90
11387;DHT22;5748;53.102;8.456;2023-02-01T08:46:01;10.10;65.60
11387;DHT22;5748;53.102;8.456;2023-02-01T08:48:28;10.20;65.60
11387;DHT22;5748;53.102;8.456;2023-02-01T08:50:55;10.20;65.50
11387;DHT22;5748;53.102;8.456;2023-02-01T08:53:22;10.20;65.50
11387;DHT22;5748;53.102;8.456;2023-02-01T08:55:50;10.20;65.50
11387;DHT22;5748;53.102;8.456;2023-02-01T08:58:17;10.30;65.60
11387;DHT22;5748;53.102;8.456;2023-02-01T09:00:46;10.30;65.60
11387;DHT22;5748;53.102;8.456;2023-02-01T09:03:14;10.30;65.50
11387;DHT22;5748;53.102;8.456;2023-02-01T09:05:41;10.40;65.60
11387;DHT22;5748;53.102;8.456;2023-02-01T09:08:08;10.40;65.50
11387;DHT22;5748;53.102;8.456;2023-02-01T09:10:36;10.40;65.50
11387;DHT22;5748;53.102;8.456;2023-02-01T09:13:03;10.40;65.50
11387;DHT22;5748;53.102;8.456;2023-02-01T09:15:30;10.40;65.40
11387;DHT22;5748;53.102;8.456;2023-02-01T09:17:58;10.40;65.40
11387;DHT22;5748;53.102;8.456;2023-02-01T09:20:26;10.40;65.40
11387;DHT22;5748;53.102;8.456;2023-02-01T09:22:54;10.40;65.20
11387;DHT22;5748;53.102;8.456;2023-02-01T09:25:21;10.40;65.00
11387;DHT22;5748;53.102;8.456;2023-02-01T09:27:49;10.50;65.20
11387;DHT22;5748;53.102;8.456;2023-02-01T09:30:16;10.50;65.10
11387;DHT22;5748;53.102;8.456;2023-02-01T09:32:43;10.50;65.10
11387;DHT22;5748;53.102;8.456;2023-02-01T09:35:12;10.50;65.00
11387;DHT22;5748;53.102;8.456;2023-02-01T09:37:39;10.50;65.00
11387;DHT22;5748;53.102;8.456;2023-02-01T09:40:08;10.70;65.30
11387;DHT22;5748;53.102;8.456;2023-02-01T09:42:55;10.50;65.40
11387;DHT22;5748;53.102;8.456;2023-02-01T09:45:33;10.60;65.20
11387;DHT22;5748;53.102;8.456;2023-02-01T09:48:10;10.60;65.10
11387;DHT22;5748;53.102;8.456;2023-02-01T09:50:45;10.60;65.00
11387;DHT22;5748;53.102;8.456;2023-02-01T09:53:18;10.60;64.70
11387;DHT22;5748;53.102;8.456;2023-02-01T09:55:49;10.60;64.80
11387;DHT22;5748;53.102;8.456;2023-02-01T09:58:22;10.60;65.60
11387;DHT22;5748;53.102;8.456;2023-02-01T10:00:56;10.60;64.80
11387;DHT22;5748;53.102;8.456;2023-02-01T10:03:27;10.60;64.80
11387;DHT22;5748;53.102;8.456;2023-02-01T10:06:16;10.70;64.70
11387;DHT22;5748;53.102;8.456;2023-02-01T10:09:08;10.60;64.70
11387;DHT22;5748;53.102;8.456;2023-02-01T10:11:51;10.70;64.50
11387;DHT22;5748;53.102;8.456;2023-02-01T10:14:51;10.60;64.60
11387;DHT22;5748;53.102;8.456;2023-02-01T10:17:36;10.60;64.70
11387;DHT22;5748;53.102;8.456;2023-02-01T10:20:18;10.60;64.70
11387;DHT22;5748;53.102;8.456;2023-02-01T10:22:57;10.60;64.80
11387;DHT22;5748;53.102;8.456;2023-02-01T10:25:34;10.50;64.80
11387;DHT22;5748;53.102;8.456;2023-02-01T10:28:04;10.50;64.80
11387;DHT22;5748;53.102;8.456;2023-02-01T10:30:37;10.50;64.80
11387;DHT22;5748;53.102;8.456;2023-02-01T10:33:15;10.50;64.80
11387;DHT22;5748;53.102;8.456;2023-02-01T10:35:45;10.40;64.90
11387;DHT22;5748;53.102;8.456;2023-02-01T10:38:19;10.40;65.00
11387;DHT22;5748;53.102;8.456;2023-02-01T10:40:52;10.40;65.10
11387;DHT22;5748;53.102;8.456;2023-02-01T10:43:20;10.30;65.20
11387;DHT22;5748;53.102;8.456;2023-02-01T10:45:47;10.30;65.10
11387;DHT22;5748;53.102;8.456;2023-02-01T10:48:14;10.30;65.20
11387;DHT22;5748;53.102;8.456;2023-02-01T10:50:46;10.20;65.30
11387;DHT22;5748;53.102;8.456;2023-02-01T10:53:21;10.20;65.50
11387;DHT22;5748;53.102;8.456;2023-02-01T10:55:53;10.30;65.70
11387;DHT22;5748;53.102;8.456;2023-02-01T10:58:26;10.30;65.70
11387;DHT22;5748;53.102;8.456;2023-02-01T11:00:57;10.30;65.70
11387;DHT22;5748;53.102;8.456;2023-02-01T11:03:37;10.30;65.60
11387;DHT22;5748;53.102;8.456;2023-02-01T11:06:17;10.30;65.50
11387;DHT22;5748;53.102;8.456;2023-02-01T11:08:53;10.30;65.40
11387;DHT22;5748;53.102;8.456;2023-02-01T11:11:22;10.20;65.30
11387;DHT22;5748;53.102;8.456;2023-02-01T11:13:55;10.20;65.40
11387;DHT22;5748;53.102;8.456;2023-02-01T11:16:30;10.20;65.50
11387;DHT22;5748;53.102;8.456;2023-02-01T11:19:01;10.20;65.80
11387;DHT22;5748;53.102;8.456;2023-02-01T11:21:28;10.20;65.80
11387;DHT22;5748;53.102;8.456;2023-02-01T11:24:00;10.20;65.90
11387;DHT22;5748;53.102;8.456;2023-02-01T11:26:29;10.20;65.80
11387;DHT22;5748;53.102;8.456;2023-02-01T11:29:00;10.20;65.60
11387;DHT22;5748;53.102;8.456;2023-02-01T11:31:30;10.10;65.30
11387;DHT22;5748;53.102;8.456;2023-02-01T11:34:05;10.10;65.20
11387;DHT22;5748;53.102;8.456;2023-02-01T11:36:36;10.00;65.10
11387;DHT22;5748;53.102;8.456;2023-02-01T11:39:17;10.00;65.30
11387;DHT22;5748;53.102;8.456;2023-02-01T11:42:01;9.90;66.50
11387;DHT22;5748;53.102;8.456;2023-02-01T11:44:35;9.80;66.60
11387;DHT22;5748;53.102;8.456;2023-02-01T11:47:20;9.80;66.70
11387;DHT22;5748;53.102;8.456;2023-02-01T11:49:58;9.70;66.90
11387;DHT22;5748;53.102;8.456;2023-02-01T11:52:43;9.70;67.00
11387;DHT22;5748;53.102;8.456;2023-02-01T12:01:49;9.60;67.40
11387;DHT22;5748;53.102;8.456;2023-02-01T12:07:35;9.60;67.90
11387;DHT22;5748;53.102;8.456;2023-02-01T12:10:24;9.50;67.90
11387;DHT22;5748;53.102;8.456;2023-02-01T12:13:05;9.50;68.00
11387;DHT22;5748;53.102;8.456;2023-02-01T12:15:48;9.50;67.50
11387;DHT22;5748;53.102;8.456;2023-02-01T12:18:45;9.40;66.30
11387;DHT22;5748;53.102;8.456;2023-02-01T12:21:32;9.30;65.80
11387;DHT22;5748;53.102;8.456;2023-02-01T12:24:32;9.20;65.30
11387;DHT22;5748;53.102;8.456;2023-02-01T12:27:38;9.00;65.30
11387;DHT22;5748;53.102;8.456;2023-02-01T12:33:11;8.70;65.10
11387;DHT22;5748;53.102;8.456;2023-02-01T12:35:54;8.60;65.20
11387;DHT22;5748;53.102;8.456;2023-02-01T12:38:52;8.50;65.20
11387;DHT22;5748;53.102;8.456;2023-02-01T12:44:29;8.30;65.40
11387;DHT22;5748;53.102;8.456;2023-02-01T12:47:03;8.20;65.80
11387;DHT22;5748;53.102;8.456;2023-02-01T12:49:43;8.20;66.30
11387;DHT22;5748;53.102;8.456;2023-02-01T12:52:21;8.20;66.90
11387;DHT22;5748;53.102;8.456;2023-02-01T12:55:06;8.20;67.20
11387;DHT22;5748;53.102;8.456;2023-02-01T12:57:40;8.30;67.60
11387;DHT22;5748;53.102;8.456;2023-02-01T13:00:20;8.40;67.70
11387;DHT22;5748;53.102;8.456;2023-02-01T13:02:56;8.50;67.70
11387;DHT22;5748;53.102;8.456;2023-02-01T13:05:31;8.50;67.50
11387;DHT22;5748;53.102;8.456;2023-02-01T13:08:07;8.60;67.50
11387;DHT22;5748;53.102;8.456;2023-02-01T13:10:40;8.60;67.50
11387;DHT22;5748;53.102;8.456;2023-02-01T13:13:14;8.70;67.30
11387;DHT22;5748;53.102;8.456;2023-02-01T13:15:49;8.70;67.20
11387;DHT22;5748;53.102;8.456;2023-02-01T13:18:34;8.80;67.40
11387;DHT22;5748;53.102;8.456;2023-02-01T13:21:06;8.80;67.40
11387;DHT22;5748;53.102;8.456;2023-02-01T13:23:37;8.90;67.50
11387;DHT22;5748;53.102;8.456;2023-02-01T13:26:05;8.90;67.80
11387;DHT22;5748;53.102;8.456;2023-02-01T13:28:37;9.00;68.00
11387;DHT22;5748;53.102;8.456;2023-02-01T13:31:24;9.10;68.20
11387;DHT22;5748;53.102;8.456;2023-02-01T13:34:29;9.20;68.40
11387;DHT22;5748;53.102;8.456;2023-02-01T13:37:14;9.30;68.40
11387;DHT22;5748;53.102;8.456;2023-02-01T13:39:59;9.50;68.50
11387;DHT22;5748;53.102;8.456;2023-02-01T13:42:37;9.60;68.40
11387;DHT22;5748;53.102;8.456;2023-02-01T13:45:15;9.70;68.40
11387;DHT22;5748;53.102;8.456;2023-02-01T13:47:49;9.80;68.30
11387;DHT22;5748;53.102;8.456;2023-02-01T13:50:23;9.90;68.20
11387;DHT22;5748;53.102;8.456;2023-02-01T13:52:53;10.00;67.00
11387;DHT22;5748;53.102;8.456;2023-02-01T13:55:28;10.10;66.80
11387;DHT22;5748;53.102;8.456;2023-02-01T13:58:03;10.10;66.50
11387;DHT22;5748;53.102;8.456;2023-02-01T14:00:34;10.20;66.30
11387;DHT22;5748;53.102;8.456;2023-02-01T14:03:12;10.20;66.30
11387;DHT22;5748;53.102;8.456;2023-02-01T14:06:02;10.20;66.20
11387;DHT22;5748;53.102;8.456;2023-02-01T14:08:46;10.20;66.20
11387;DHT22;5748;53.102;8.456;2023-02-01T14:11:39;10.30;66.10
11387;DHT22;5748;53.102;8.456;2023-02-01T14:17:31;10.30;66.10
11387;DHT22;5748;53.102;8.456;2023-02-01T14:23:25;10.40;66.30
11387;DHT22;5748;53.102;8.456;2023-02-01T14:26:11;10.40;66.50
11387;DHT22;5748;53.102;8.456;2023-02-01T14:28:45;10.40;66.40
11387;DHT22;5748;53.102;8.456;2023-02-01T14:31:39;10.50;66.60
11387;DHT22;5748;53.102;8.456;2023-02-01T14:34:29;10.50;66.40
11387;DHT22;5748;53.102;8.456;2023-02-01T14:37:03;10.60;66.20
11387;DHT22;5748;53.102;8.456;2023-02-01T14:39:46;10.60;65.80
11387;DHT22;5748;53.102;8.456;2023-02-01T14:42:24;10.60;65.70
11387;DHT22;5748;53.102;8.456;2023-02-01T14:44:53;10.60;65.70
11387;DHT22;5748;53.102;8.456;2023-02-01T14:47:32;10.60;65.80
11387;DHT22;5748;53.102;8.456;2023-02-01T14:50:07;10.50;66.60
11387;DHT22;5748;53.102;8.456;2023-02-01T14:52:42;10.60;66.10
11387;DHT22;5748;53.102;8.456;2023-02-01T14:55:16;10.60;66.40
11387;DHT22;5748;53.102;8.456;2023-02-01T14:57:48;10.70;66.70
11387;DHT22;5748;53.102;8.456;2023-02-01T15:00:22;10.70;66.60
11387;DHT22;5748;53.102;8.456;2023-02-01T15:02:51;10.80;67.50
11387;DHT22;5748;53.102;8.456;2023-02-01T15:05:27;10.80;66.70
11387;DHT22;5748;53.102;8.456;2023-02-01T15:08:03;10.90;66.50
11387;DHT22;5748;53.102;8.456;2023-02-01T15:10:33;11.00;66.30
11387;DHT22;5748;53.102;8.456;2023-02-01T15:13:18;11.10;65.90
11387;DHT22;5748;53.102;8.456;2023-02-01T15:16:03;11.10;65.60
11387;DHT22;5748;53.102;8.456;2023-02-01T15:18:31;11.10;65.00
11387;DHT22;5748;53.102;8.456;2023-02-01T15:21:17;11.10;64.80
11387;DHT22;5748;53.102;8.456;2023-02-01T15:23:47;11.10;64.40
11387;DHT22;5748;53.102;8.456;2023-02-01T15:26:29;11.00;64.40
11387;DHT22;5748;53.102;8.456;2023-02-01T15:28:57;11.00;64.40
11387;DHT22;5748;53.102;8.456;2023-02-01T15:31:33;11.00;64.50
11387;DHT22;5748;53.102;8.456;2023-02-01T15:34:01;10.90;64.20
11387;DHT22;5748;53.102;8.456;2023-02-01T15:36:36;10.90;64.10
11387;DHT22;5748;53.102;8.456;2023-02-01T15:39:20;10.90;64.30
11387;DHT22;5748;53.102;8.456;2023-02-01T15:41:53;10.80;64.40
11387;DHT22;5748;53.102;8.456;2023-02-01T15:44:39;10.80;64.50
11387;DHT22;5748;53.102;8.456;2023-02-01T15:47:16;10.80;64.60
11387;DHT22;5748;53.102;8.456;2023-02-01T15:49:49;10.70;65.30
11387;DHT22;5748;53.102;8.456;2023-02-01T15:52:36;10.80;64.70
11387;DHT22;5748;53.102;8.456;2023-02-01T15:55:17;10.70;64.60
11387;DHT22;5748;53.102;8.456;2023-02-01T15:57:46;10.70;64.70
11387;DHT22;5748;53.102;8.456;2023-02-01T16:00:22;10.80;64.90
11387;DHT22;5748;53.102;8.456;2023-02-01T16:02:54;10.80;65.10
11387;DHT22;5748;53.102;8.456;2023-02-01T16:05:30;10.80;64.90
11387;DHT22;5748;53.102;8.456;2023-02-01T16:08:05;10.80;64.70
11387;DHT22;5748;53.102;8.456;2023-02-01T16:10:41;10.80;64.40
11387;DHT22;5748;53.102;8.456;2023-02-01T16:13:10;10.70;64.10
11387;DHT22;5748;53.102;8.456;2023-02-01T16:15:37;10.70;63.80
11387;DHT22;5748;53.102;8.456;2023-02-01T16:18:15;10.60;63.50
11387;DHT22;5748;53.102;8.456;2023-02-01T16:20:48;10.50;63.50
11387;DHT22;5748;53.102;8.456;2023-02-01T16:23:15;10.40;63.30
11387;DHT22;5748;53.102;8.456;2023-02-01T16:25:43;10.30;63.30
11387;DHT22;5748;53.102;8.456;2023-02-01T16:28:11;10.50;63.70
11387;DHT22;5748;53.102;8.456;2023-02-01T16:30:51;11.00;64.50
11387;DHT22;5748;53.102;8.456;2023-02-01T16:33:21;10.00;63.40
11387;DHT22;5748;53.102;8.456;2023-02-01T16:35:51;9.90;64.60
11387;DHT22;5748;53.102;8.456;2023-02-01T16:38:19;9.80;64.60
11387;DHT22;5748;53.102;8.456;2023-02-01T16:40:56;9.80;64.80
11387;DHT22;5748;53.102;8.456;2023-02-01T16:43:35;9.80;64.30
11387;DHT22;5748;53.102;8.456;2023-02-01T16:46:05;9.60;64.40
11387;DHT22;5748;53.102;8.456;2023-02-01T16:48:37;9.60;64.60
11387;DHT22;5748;53.102;8.456;2023-02-01T16:51:28;10.30;65.00
11387;DHT22;5748;53.102;8.456;2023-02-01T16:53:57;9.50;66.10
11387;DHT22;5748;53.102;8.456;2023-02-01T16:56:31;10.80;65.60
11387;DHT22;5748;53.102;8.456;2023-02-01T16:59:01;9.40;64.90
11387;DHT22;5748;53.102;8.456;2023-02-01T17:01:37;11.90;68.20